KPVD

UTC

Theodore Francis Green State Airport

Providence, Rhode Island, United States

TAF Report

KPVD 030358Z 0304/0324 03012KT 6SM -RA SCT015 OVC080 FM030600 03011KT P6SM VCSH OVC015 FM030700 03008KT P6SM VCSH OVC008 FM030900 03013G21KT P6SM OVC008 FM032300 03014G23KT P6SM OVC025

Issued

Jun 03 03:58 UTC

Valid From

Jun 03 04:00 UTC

Valid To

Jun 04 00:00 UTC

TAF Sections

  1. Jun 03 04:00 UTC - Jun 03 06:00 UTC

    TAF KPVD 030358Z 0304/0324 03012KT 6SM -RA SCT015 OVC080

    Wind

    030° at 12 KTS

    Visibility

    6 SM

    Conditions

    • Light Rain

    Clouds

    • Scattered at 1,500 ft AGL
    • Overcast at 8,000 ft AGL

    Ceiling

    Overcast at 8,000 ft AGL

  2. Jun 03 06:00 UTC - Jun 03 07:00 UTC

    FM030600 03011KT P6SM VCSH OVC015

    Wind

    030° at 11 KTS

    Visibility

    Greater than 6 SM

    Conditions

    • Area Showers

    Clouds

    • Overcast at 1,500 ft AGL

    Ceiling

    Overcast at 1,500 ft AGL

  3. Jun 03 07:00 UTC - Jun 03 09:00 UTC

    FM030700 03008KT P6SM VCSH OVC008

    Wind

    030° at 8 KTS

    Visibility

    Greater than 6 SM

    Conditions

    • Area Showers

    Clouds

    • Overcast at 800 ft AGL

    Ceiling

    Overcast at 800 ft AGL

  4. Jun 03 09:00 UTC - Jun 03 23:00 UTC

    FM030900 03013G21KT P6SM OVC008

    Wind

    030° at 13 KTS
    Gusting to 21 KTS

    Visibility

    Greater than 6 SM

    Clouds

    • Overcast at 800 ft AGL

    Ceiling

    Overcast at 800 ft AGL

  5. Jun 03 23:00 UTC - Jun 04 00:00 UTC

    FM032300 03014G23KT P6SM OVC025

    Wind

    030° at 14 KTS
    Gusting to 23 KTS

    Visibility

    Greater than 6 SM

    Clouds

    • Overcast at 2,500 ft AGL

    Ceiling

    Overcast at 2,500 ft AGL